Time;durP1;ratioP1;P1;durP2;ratioP2;P2;SDS_P1;SDS_P2;PMS_P1;PMS_P2;Temp;Humidity;BMP_temperature;BMP_pressure;BME280_temperature;BME280_humidity;BME280_pressure;Samples;Min_cycle;Max_cycle;Signal;HPM_P1;HPM_P2
2023/05/16 00:01:36;;;;;;;;;;;20.20;72.70;;;;;;5087866;27;43101;-81
2023/05/16 00:04:02;;;;;;;;;;;20.10;72.90;;;;;;5103581;27;42977;-82
2023/05/16 00:06:29;;;;;;;;;;;20.10;72.80;;;;;;5090593;27;44435;-82
2023/05/16 00:08:54;;;;;;;;;;;20.20;73.00;;;;;;5095747;27;43124;-82
2023/05/16 00:11:20;;;;;;;;;;;20.20;73.30;;;;;;5096318;27;42853;-81
2023/05/16 00:13:46;;;;;;;;;;;20.20;73.40;;;;;;5073236;27;43175;-81
2023/05/16 00:16:13;;;;;;;;;;;20.00;73.70;;;;;;5087549;27;43076;-83
2023/05/16 00:18:38;;;;;;;;;;;20.10;73.50;;;;;;5099921;27;43150;-82
2023/05/16 00:21:04;;;;;;;;;;;20.00;73.70;;;;;;5099488;27;42970;-82
2023/05/16 00:23:30;;;;;;;;;;;20.10;73.70;;;;;;5099865;27;43141;-81
2023/05/16 00:25:56;;;;;;;;;;;20.20;73.60;;;;;;5099663;27;43453;-82
2023/05/16 00:28:21;;;;;;;;;;;20.20;73.60;;;;;;5087780;27;42989;-80
2023/05/16 00:30:47;;;;;;;;;;;20.10;74.00;;;;;;5101864;27;42964;-79
2023/05/16 00:33:12;;;;;;;;;;;20.20;73.80;;;;;;5105787;27;42973;-81
2023/05/16 00:35:38;;;;;;;;;;;20.10;73.80;;;;;;5087035;27;42952;-78
2023/05/16 00:38:03;;;;;;;;;;;20.20;74.20;;;;;;5099040;27;43887;-78
2023/05/16 00:40:29;;;;;;;;;;;20.20;73.80;;;;;;5091260;27;43171;-78
2023/05/16 00:42:54;;;;;;;;;;;20.10;74.20;;;;;;5091537;27;43160;-79
2023/05/16 00:45:20;;;;;;;;;;;20.10;74.10;;;;;;5101816;27;43367;-79
2023/05/16 00:47:46;;;;;;;;;;;19.90;73.60;;;;;;5097157;27;42934;-78
2023/05/16 00:50:11;;;;;;;;;;;20.20;73.70;;;;;;5102623;27;43507;-80
2023/05/16 00:52:37;;;;;;;;;;;20.20;74.00;;;;;;5087823;27;42953;-79
2023/05/16 00:55:03;;;;;;;;;;;20.10;73.70;;;;;;5091215;27;43008;-79
2023/05/16 00:57:29;;;;;;;;;;;20.30;73.70;;;;;;5097207;27;42954;-80
2023/05/16 00:59:54;;;;;;;;;;;20.10;74.40;;;;;;5098241;27;43002;-80
2023/05/16 01:02:20;;;;;;;;;;;20.20;73.90;;;;;;5095388;27;42923;-78
2023/05/16 01:04:47;;;;;;;;;;;20.10;73.90;;;;;;5094504;27;43466;-80
2023/05/16 01:07:12;;;;;;;;;;;20.30;74.00;;;;;;5097558;27;43005;-80
2023/05/16 01:09:38;;;;;;;;;;;20.20;73.90;;;;;;5094360;27;42913;-78
2023/05/16 01:12:03;;;;;;;;;;;20.20;74.50;;;;;;5092635;27;43050;-79
2023/05/16 01:14:32;;;;;;;;;;;20.20;74.10;;;;;;5101173;27;43732;-77
2023/05/16 01:17:07;;;;;;;;;;;20.20;72.40;;;;;;5096704;27;43576;-79
2023/05/16 01:19:35;;;;;;;;;;;17.90;70.60;;;;;;5097560;27;43588;-78
2023/05/16 01:22:01;;;;;;;;;;;20.20;74.30;;;;;;5101227;27;42977;-78
2023/05/16 01:24:30;;;;;;;;;;;20.10;74.20;;;;;;5086733;27;44926;-78
2023/05/16 01:26:57;;;;;;;;;;;20.00;72.20;;;;;;5104964;27;43242;-79
2023/05/16 01:29:23;;;;;;;;;;;20.10;74.80;;;;;;5104759;27;42973;-79
2023/05/16 01:31:49;;;;;;;;;;;20.20;74.70;;;;;;5105615;27;42922;-78
2023/05/16 01:34:14;;;;;;;;;;;20.20;74.50;;;;;;5101822;27;43093;-78
2023/05/16 01:36:40;;;;;;;;;;;20.20;74.60;;;;;;5086481;27;43315;-79
2023/05/16 01:39:24;;;;;;;;;;;20.10;74.90;;;;;;5086358;27;42946;-78
2023/05/16 01:41:58;;;;;;;;;;;20.10;72.40;;;;;;5096402;27;43410;-78
2023/05/16 01:44:44;;;;;;;;;;;20.30;72.70;;;;;;5086768;27;42927;-77
2023/05/16 01:47:13;;;;;;;;;;;20.10;74.90;;;;;;5092329;27;44040;-78
2023/05/16 01:50:07;;;;;;;;;;;20.10;72.60;;;;;;5104961;27;43189;-78
2023/05/16 01:52:33;;;;;;;;;;;20.00;72.70;;;;;;5100914;27;42908;-78
2023/05/16 01:54:59;;;;;;;;;;;20.30;75.30;;;;;;5099400;27;43064;-78
2023/05/16 01:57:25;;;;;;;;;;;20.20;75.40;;;;;;5097807;27;43297;-77
2023/05/16 01:59:51;;;;;;;;;;;20.10;74.90;;;;;;5065589;28;44072;-78
2023/05/16 02:02:17;;;;;;;;;;;20.70;75.40;;;;;;5096467;27;43040;-77
2023/05/16 02:04:43;;;;;;;;;;;20.10;75.30;;;;;;5100388;27;43125;-77
2023/05/16 02:07:08;;;;;;;;;;;20.20;75.80;;;;;;5104419;27;42893;-78
2023/05/16 02:09:34;;;;;;;;;;;20.20;75.60;;;;;;5085201;27;43898;-78
2023/05/16 02:12:00;;;;;;;;;;;20.20;75.50;;;;;;5083962;27;43119;-78
2023/05/16 02:14:25;;;;;;;;;;;20.20;75.60;;;;;;5103398;27;43023;-77
2023/05/16 02:16:51;;;;;;;;;;;20.20;75.40;;;;;;5105239;27;42997;-78
2023/05/16 02:19:16;;;;;;;;;;;20.20;75.90;;;;;;5085744;27;43843;-79
2023/05/16 02:21:42;;;;;;;;;;;20.20;75.40;;;;;;5089896;27;43242;-78
2023/05/16 02:24:07;;;;;;;;;;;20.10;75.70;;;;;;5105486;27;42910;-78
2023/05/16 02:26:33;;;;;;;;;;;20.30;75.90;;;;;;5098167;27;43975;-78
2023/05/16 02:28:58;;;;;;;;;;;20.20;75.90;;;;;;5085105;27;43330;-78
2023/05/16 02:31:31;;;;;;;;;;;20.10;75.70;;;;;;5084330;27;43077;-78
2023/05/16 02:33:57;;;;;;;;;;;20.20;73.50;;;;;;5096266;27;45338;-80
2023/05/16 02:36:23;;;;;;;;;;;19.90;75.50;;;;;;5104593;27;43207;-77
2023/05/16 02:38:48;;;;;;;;;;;20.20;75.60;;;;;;5091182;27;42944;-79
2023/05/16 02:41:14;;;;;;;;;;;20.00;75.40;;;;;;5102072;27;43224;-78
2023/05/16 02:43:40;;;;;;;;;;;20.50;76.00;;;;;;5096029;27;43330;-80
2023/05/16 02:46:26;;;;;;;;;;;20.40;75.70;;;;;;5085194;27;43085;-79
2023/05/16 02:48:52;;;;;;;;;;;20.20;74.60;;;;;;5086918;27;43737;-78
2023/05/16 02:51:19;;;;;;;;;;;20.20;75.80;;;;;;5104642;27;42903;-78
2023/05/16 02:53:45;;;;;;;;;;;20.20;75.70;;;;;;5103245;27;43059;-78
2023/05/16 02:56:10;;;;;;;;;;;20.10;75.70;;;;;;5101539;27;42914;-78
2023/05/16 02:58:36;;;;;;;;;;;20.30;75.90;;;;;;5088988;27;43719;-79
2023/05/16 03:01:01;;;;;;;;;;;20.30;75.80;;;;;;5096646;27;42967;-78
2023/05/16 03:03:27;;;;;;;;;;;20.20;75.90;;;;;;5097830;27;43016;-79
2023/05/16 03:05:52;;;;;;;;;;;20.20;75.70;;;;;;5098148;27;43059;-79
2023/05/16 03:08:17;;;;;;;;;;;20.10;76.10;;;;;;5092762;27;42985;-80
2023/05/16 03:10:43;;;;;;;;;;;20.20;75.90;;;;;;5091584;27;44697;-78
2023/05/16 03:13:08;;;;;;;;;;;20.20;75.80;;;;;;5091211;27;43049;-81
2023/05/16 03:15:34;;;;;;;;;;;20.10;76.00;;;;;;5091101;27;43026;-80
2023/05/16 03:18:00;;;;;;;;;;;20.20;75.80;;;;;;5089836;27;43087;-79
2023/05/16 03:20:25;;;;;;;;;;;20.10;75.90;;;;;;5095312;27;42867;-81
2023/05/16 03:22:51;;;;;;;;;;;20.10;76.20;;;;;;5083389;27;43840;-80
2023/05/16 03:25:16;;;;;;;;;;;20.30;76.20;;;;;;5086675;27;43018;-79
2023/05/16 03:27:42;;;;;;;;;;;20.20;75.70;;;;;;5086895;27;42979;-80
2023/05/16 03:30:08;;;;;;;;;;;20.30;76.10;;;;;;5090259;27;43018;-80
2023/05/16 03:32:33;;;;;;;;;;;20.20;75.80;;;;;;5099382;27;43949;-79
2023/05/16 03:34:59;;;;;;;;;;;20.00;75.90;;;;;;5086187;27;43102;-79
2023/05/16 03:37:25;;;;;;;;;;;20.20;76.00;;;;;;5084737;27;43381;-80
2023/05/16 03:39:50;;;;;;;;;;;20.20;75.60;;;;;;5088805;27;42974;-79
2023/05/16 03:42:17;;;;;;;;;;;20.10;76.20;;;;;;5086236;27;42930;-80
2023/05/16 03:44:43;;;;;;;;;;;20.10;76.00;;;;;;5103700;27;42904;-79
2023/05/16 03:47:08;;;;;;;;;;;20.20;76.20;;;;;;5089275;27;43278;-79
2023/05/16 03:49:35;;;;;;;;;;;20.20;75.60;;;;;;5084954;27;43450;-80
2023/05/16 03:52:01;;;;;;;;;;;20.20;75.60;;;;;;5085612;27;44330;-80
2023/05/16 03:54:27;;;;;;;;;;;19.90;75.60;;;;;;5087600;27;42941;-79
2023/05/16 03:56:52;;;;;;;;;;;20.20;76.00;;;;;;5098962;27;43826;-80
2023/05/16 03:59:18;;;;;;;;;;;20.20;76.10;;;;;;5067750;27;43122;-79
2023/05/16 04:01:43;;;;;;;;;;;20.10;76.10;;;;;;5100413;27;42973;-80
2023/05/16 04:04:09;;;;;;;;;;;20.30;75.90;;;;;;5106818;27;42920;-80
2023/05/16 04:06:34;;;;;;;;;;;20.20;76.20;;;;;;5105530;27;43040;-81
2023/05/16 04:09:00;;;;;;;;;;;20.20;75.80;;;;;;5099385;27;43276;-79
2023/05/16 04:11:26;;;;;;;;;;;20.20;76.10;;;;;;5090732;27;43114;-83
2023/05/16 04:13:52;;;;;;;;;;;20.20;76.00;;;;;;5097485;27;43031;-79
2023/05/16 04:16:18;;;;;;;;;;;20.30;75.90;;;;;;5103572;27;43443;-80
2023/05/16 04:18:45;;;;;;;;;;;20.30;75.90;;;;;;5100126;27;43161;-80
2023/05/16 04:21:14;;;;;;;;;;;20.10;76.50;;;;;;5096235;27;43577;-80
2023/05/16 04:23:40;;;;;;;;;;;20.10;76.00;;;;;;5099614;27;42957;-80
2023/05/16 04:26:05;;;;;;;;;;;20.20;75.90;;;;;;5090815;27;42972;-82
2023/05/16 04:28:31;;;;;;;;;;;20.20;76.30;;;;;;5086994;27;43101;-83
2023/05/16 04:30:57;;;;;;;;;;;20.20;76.30;;;;;;5095395;27;44275;-83
2023/05/16 04:33:22;;;;;;;;;;;20.10;76.20;;;;;;5103378;27;42933;-81
2023/05/16 04:35:48;;;;;;;;;;;20.20;76.40;;;;;;5093083;27;43787;-81
2023/05/16 04:38:14;;;;;;;;;;;20.40;76.50;;;;;;5100342;27;43860;-80
2023/05/16 04:40:40;;;;;;;;;;;20.30;76.40;;;;;;5100470;27;43103;-80
2023/05/16 04:43:06;;;;;;;;;;;20.40;76.50;;;;;;5098957;27;43057;-82
2023/05/16 04:45:32;;;;;;;;;;;20.20;76.50;;;;;;5097976;27;44481;-84
2023/05/16 04:47:57;;;;;;;;;;;20.30;76.60;;;;;;5090356;27;43254;-81
2023/05/16 04:50:23;;;;;;;;;;;20.20;76.20;;;;;;5097046;27;43061;-84
2023/05/16 04:52:48;;;;;;;;;;;20.20;76.00;;;;;;5093404;27;43060;-84
2023/05/16 04:55:14;;;;;;;;;;;20.20;76.20;;;;;;5100034;27;43176;-83
2023/05/16 04:57:40;;;;;;;;;;;20.40;76.20;;;;;;5098030;27;43006;-83
2023/05/16 05:00:10;;;;;;;;;;;20.40;76.20;;;;;;5093993;27;44028;-84
2023/05/16 05:02:37;;;;;;;;;;;20.20;73.70;;;;;;5097473;27;43224;-83
2023/05/16 05:05:03;;;;;;;;;;;20.40;76.70;;;;;;5094509;27;43481;-79
2023/05/16 05:07:28;;;;;;;;;;;20.10;76.20;;;;;;5067337;28;43194;-79
2023/05/16 05:09:54;;;;;;;;;;;20.20;76.30;;;;;;5095803;27;42890;-80
2023/05/16 05:12:20;;;;;;;;;;;20.30;76.50;;;;;;5099080;27;43092;-81
2023/05/16 05:14:46;;;;;;;;;;;20.30;76.10;;;;;;5091568;27;43558;-82
2023/05/16 05:17:11;;;;;;;;;;;20.50;76.30;;;;;;5088037;27;42899;-81
2023/05/16 05:19:37;;;;;;;;;;;20.20;76.30;;;;;;5086835;27;42964;-83
2023/05/16 05:22:02;;;;;;;;;;;20.30;76.40;;;;;;5105356;27;42903;-82
2023/05/16 05:24:28;;;;;;;;;;;20.40;76.40;;;;;;5095445;27;42879;-82
2023/05/16 05:26:53;;;;;;;;;;;20.30;76.70;;;;;;5091284;27;43002;-83
2023/05/16 05:29:19;;;;;;;;;;;20.20;76.40;;;;;;5088043;27;45589;-81
2023/05/16 05:31:44;;;;;;;;;;;20.20;76.80;;;;;;5104056;27;43097;-82
2023/05/16 05:34:10;;;;;;;;;;;20.30;76.30;;;;;;5103373;27;42969;-81
2023/05/16 05:36:35;;;;;;;;;;;20.40;76.50;;;;;;5098500;27;42993;-82
2023/05/16 05:39:01;;;;;;;;;;;20.20;76.40;;;;;;5086445;27;43351;-83
2023/05/16 05:41:27;;;;;;;;;;;20.30;76.50;;;;;;5075620;27;42952;-82
2023/05/16 05:43:52;;;;;;;;;;;20.20;76.50;;;;;;5094317;27;43001;-81
2023/05/16 05:46:18;;;;;;;;;;;20.40;76.60;;;;;;5083557;27;43171;-82
2023/05/16 05:48:43;;;;;;;;;;;20.30;76.70;;;;;;5105794;27;43575;-82
2023/05/16 05:51:09;;;;;;;;;;;20.30;76.50;;;;;;5104230;27;43046;-82
2023/05/16 05:53:35;;;;;;;;;;;20.30;76.70;;;;;;5105247;27;42904;-82
2023/05/16 05:56:00;;;;;;;;;;;20.20;76.60;;;;;;5076985;27;42979;-82
2023/05/16 05:58:26;;;;;;;;;;;20.30;76.60;;;;;;5105820;27;42944;-81
2023/05/16 06:00:51;;;;;;;;;;;20.10;76.80;;;;;;5105801;27;42960;-81
2023/05/16 06:03:17;;;;;;;;;;;20.30;77.00;;;;;;5103227;27;43606;-81
2023/05/16 06:05:42;;;;;;;;;;;20.30;76.50;;;;;;5104397;27;42811;-80
2023/05/16 06:08:08;;;;;;;;;;;20.20;76.80;;;;;;5104989;27;42913;-82
2023/05/16 06:10:33;;;;;;;;;;;20.20;77.10;;;;;;5092835;27;42988;-81
2023/05/16 06:12:59;;;;;;;;;;;20.30;77.10;;;;;;5104945;27;43614;-81
2023/05/16 06:15:25;;;;;;;;;;;20.20;77.60;;;;;;5098288;27;43083;-82
2023/05/16 06:17:51;;;;;;;;;;;20.30;76.70;;;;;;5095092;27;43194;-81
2023/05/16 06:20:16;;;;;;;;;;;20.30;77.50;;;;;;5097939;27;42970;-85
2023/05/16 06:22:42;;;;;;;;;;;20.10;76.80;;;;;;5084314;27;43088;-85
2023/05/16 06:25:08;;;;;;;;;;;20.20;76.90;;;;;;5077575;27;43064;-84
2023/05/16 06:27:33;;;;;;;;;;;20.30;76.70;;;;;;5091828;27;42942;-86
2023/05/16 06:29:59;;;;;;;;;;;20.40;76.70;;;;;;5087985;27;43010;-85
2023/05/16 06:32:24;;;;;;;;;;;20.30;76.40;;;;;;5105469;27;43641;-85
2023/05/16 06:34:50;;;;;;;;;;;20.30;76.40;;;;;;5086219;27;42966;-82
2023/05/16 06:37:16;;;;;;;;;;;20.40;76.20;;;;;;5085160;27;43501;-85
2023/05/16 06:39:41;;;;;;;;;;;20.30;76.20;;;;;;5102636;27;42970;-82
2023/05/16 06:42:07;;;;;;;;;;;20.30;75.90;;;;;;5093300;27;43523;-82
2023/05/16 06:44:32;;;;;;;;;;;20.30;75.90;;;;;;5100367;27;43404;-82
2023/05/16 06:46:58;;;;;;;;;;;20.30;75.80;;;;;;5103737;27;42941;-84
2023/05/16 06:49:23;;;;;;;;;;;20.20;75.80;;;;;;5100614;27;43153;-83
2023/05/16 06:51:49;;;;;;;;;;;20.30;75.60;;;;;;5085964;27;44233;-86
2023/05/16 06:54:14;;;;;;;;;;;20.30;75.40;;;;;;5096587;27;42988;-81
2023/05/16 06:56:40;;;;;;;;;;;20.20;74.00;;;;;;5091108;27;43523;-85
2023/05/16 06:59:06;;;;;;;;;;;20.20;74.60;;;;;;5088830;27;43483;-88
2023/05/16 07:01:31;;;;;;;;;;;20.30;75.00;;;;;;5102153;27;43326;-83
2023/05/16 07:03:57;;;;;;;;;;;20.10;73.10;;;;;;5098003;27;43145;-88
2023/05/16 07:06:22;;;;;;;;;;;20.30;72.50;;;;;;5079397;28;45475;-85
2023/05/16 07:08:48;;;;;;;;;;;20.30;71.40;;;;;;5090678;27;43097;-87
2023/05/16 07:11:13;;;;;;;;;;;20.30;71.10;;;;;;5090913;27;43215;-88
2023/05/16 07:13:39;;;;;;;;;;;20.00;70.90;;;;;;5090001;27;43087;-89
2023/05/16 07:16:06;;;;;;;;;;;20.30;70.60;;;;;;5091903;27;42957;-88
2023/05/16 07:18:32;;;;;;;;;;;20.30;70.30;;;;;;5097287;27;43192;-79
2023/05/16 07:20:57;;;;;;;;;;;20.30;70.30;;;;;;5091096;27;42983;-79
2023/05/16 07:23:23;;;;;;;;;;;20.30;70.50;;;;;;5085294;27;42994;-80
2023/05/16 07:25:48;;;;;;;;;;;20.30;70.60;;;;;;5090584;27;43437;-80
2023/05/16 07:28:14;;;;;;;;;;;20.20;70.40;;;;;;5085113;27;42946;-80
2023/05/16 07:30:39;;;;;;;;;;;20.20;70.20;;;;;;5091747;27;42825;-81
2023/05/16 07:33:05;;;;;;;;;;;20.30;70.30;;;;;;5092859;27;44111;-83
2023/05/16 07:35:31;;;;;;;;;;;20.30;70.40;;;;;;5098733;27;43499;-85
2023/05/16 07:37:56;;;;;;;;;;;20.30;70.10;;;;;;5101368;27;43139;-85
2023/05/16 07:40:27;;;;;;;;;;;20.20;70.10;;;;;;5101330;27;42891;-86
2023/05/16 07:42:52;;;;;;;;;;;20.20;70.70;;;;;;5092732;27;43095;-90
2023/05/16 07:45:18;;;;;;;;;;;20.10;71.20;;;;;;5102167;27;43627;-82
2023/05/16 07:47:43;;;;;;;;;;;20.10;70.20;;;;;;5078564;28;43037;-88
2023/05/16 07:50:09;;;;;;;;;;;20.30;70.00;;;;;;5095605;27;43525;-87
2023/05/16 07:52:35;;;;;;;;;;;20.20;70.30;;;;;;5097114;27;43305;-86
2023/05/16 07:55:00;;;;;;;;;;;20.30;70.10;;;;;;5095474;27;43488;-84
2023/05/16 07:57:26;;;;;;;;;;;20.20;69.90;;;;;;5100643;27;43167;-91
2023/05/16 07:59:51;;;;;;;;;;;20.20;70.00;;;;;;5102525;27;43874;-89
2023/05/16 08:02:17;;;;;;;;;;;20.20;70.20;;;;;;5091352;27;43000;-80
2023/05/16 08:04:43;;;;;;;;;;;20.20;70.80;;;;;;5095597;27;42922;-81
2023/05/16 08:07:08;;;;;;;;;;;20.30;70.10;;;;;;5100007;27;42827;-78
2023/05/16 08:09:34;;;;;;;;;;;20.30;70.20;;;;;;5089217;27;43341;-89
2023/05/16 08:12:02;;;;;;;;;;;20.30;69.90;;;;;;5095025;27;42968;-88
2023/05/16 08:14:35;;;;;;;;;;;20.30;69.90;;;;;;5091898;27;43012;-82
2023/05/16 08:17:01;;;;;;;;;;;20.10;67.70;;;;;;5096919;27;43075;-83
2023/05/16 08:19:26;;;;;;;;;;;20.30;70.10;;;;;;5091249;27;43498;-81
2023/05/16 08:21:52;;;;;;;;;;;20.20;69.80;;;;;;5101081;27;43077;-81
2023/05/16 08:24:17;;;;;;;;;;;20.30;69.60;;;;;;5097521;27;42992;-82
2023/05/16 08:26:43;;;;;;;;;;;20.30;69.90;;;;;;5089735;27;42850;-88
2023/05/16 08:29:09;;;;;;;;;;;20.30;69.90;;;;;;5097581;27;42904;-90
2023/05/16 08:31:34;;;;;;;;;;;20.30;70.00;;;;;;5091374;27;43118;-81
2023/05/16 08:34:00;;;;;;;;;;;20.30;69.70;;;;;;5090429;27;43173;-78
2023/05/16 08:36:26;;;;;;;;;;;20.20;69.80;;;;;;5097435;27;43007;-77
2023/05/16 08:38:52;;;;;;;;;;;20.20;70.20;;;;;;5102102;27;43588;-84
2023/05/16 08:41:17;;;;;;;;;;;21.30;70.80;;;;;;5096035;27;42994;-78
2023/05/16 08:43:43;;;;;;;;;;;20.20;70.00;;;;;;5101422;27;43300;-80
2023/05/16 08:46:08;;;;;;;;;;;20.30;69.60;;;;;;5097450;27;43050;-79
2023/05/16 08:48:35;;;;;;;;;;;20.20;69.90;;;;;;5105475;27;43217;-78
2023/05/16 08:51:02;;;;;;;;;;;20.20;70.00;;;;;;5099192;27;42962;-79
2023/05/16 08:53:31;;;;;;;;;;;20.30;70.00;;;;;;5092362;27;42883;-78
2023/05/16 08:55:58;;;;;;;;;;;20.40;69.50;;;;;;5098493;27;43209;-77
2023/05/16 08:58:23;;;;;;;;;;;20.20;70.00;;;;;;5105352;27;43615;-78
2023/05/16 09:00:49;;;;;;;;;;;20.20;70.00;;;;;;5093574;27;42977;-78
2023/05/16 09:03:15;;;;;;;;;;;20.40;69.70;;;;;;5092448;27;43189;-78
2023/05/16 09:05:41;;;;;;;;;;;20.20;69.80;;;;;;5089818;27;43025;-79
2023/05/16 09:08:06;;;;;;;;;;;20.30;69.50;;;;;;5091995;27;43060;-79
2023/05/16 09:10:31;;;;;;;;;;;20.30;69.80;;;;;;5100640;27;43015;-78
2023/05/16 09:12:57;;;;;;;;;;;20.20;69.60;;;;;;5103169;27;43740;-79
2023/05/16 09:15:30;;;;;;;;;;;20.30;69.30;;;;;;5094377;27;42931;-78
2023/05/16 09:17:59;;;;;;;;;;;20.30;69.90;;;;;;5086414;27;43001;-77
2023/05/16 09:20:25;;;;;;;;;;;20.40;69.60;;;;;;5094015;27;43578;-78
2023/05/16 09:22:52;;;;;;;;;;;20.30;69.80;;;;;;5095622;27;42899;-79
2023/05/16 09:25:17;;;;;;;;;;;20.30;69.50;;;;;;5101855;27;43127;-78
2023/05/16 09:27:45;;;;;;;;;;;20.70;70.00;;;;;;5094446;27;44033;-79
2023/05/16 09:30:13;;;;;;;;;;;20.10;69.90;;;;;;5096023;27;43263;-77
2023/05/16 09:32:41;;;;;;;;;;;20.30;69.70;;;;;;5100795;27;43052;-77
2023/05/16 09:35:09;;;;;;;;;;;20.40;70.20;;;;;;5096864;27;42906;-78
2023/05/16 09:37:35;;;;;;;;;;;20.30;69.70;;;;;;5105676;27;43547;-77
2023/05/16 09:40:02;;;;;;;;;;;20.30;69.90;;;;;;5104593;27;42975;-78
2023/05/16 09:42:27;;;;;;;;;;;20.30;69.40;;;;;;5104564;27;43514;-78
2023/05/16 09:44:53;;;;;;;;;;;20.20;70.10;;;;;;5099408;27;42933;-79
2023/05/16 09:47:19;;;;;;;;;;;20.50;70.40;;;;;;5088712;27;43509;-77
2023/05/16 09:49:45;;;;;;;;;;;20.30;70.10;;;;;;5101534;27;42973;-77
2023/05/16 09:52:12;;;;;;;;;;;20.40;70.00;;;;;;5095840;27;42977;-78
2023/05/16 09:54:38;;;;;;;;;;;20.30;69.60;;;;;;5095350;27;42990;-88
2023/05/16 09:57:03;;;;;;;;;;;20.20;69.70;;;;;;5101633;27;42847;-77
2023/05/16 09:59:38;;;;;;;;;;;20.20;69.90;;;;;;5100437;27;43120;-77
2023/05/16 10:02:04;;;;;;;;;;;20.40;69.60;;;;;;5103209;27;42956;-78
2023/05/16 10:04:30;;;;;;;;;;;20.30;69.70;;;;;;5101263;27;43022;-79
2023/05/16 10:06:56;;;;;;;;;;;20.30;69.50;;;;;;5100353;27;43756;-83
2023/05/16 10:09:22;;;;;;;;;;;20.20;69.60;;;;;;5099563;27;43385;-79
2023/05/16 10:11:48;;;;;;;;;;;20.40;69.50;;;;;;5096991;27;42911;-79
2023/05/16 10:14:16;;;;;;;;;;;20.20;69.70;;;;;;5088334;27;43001;-80
2023/05/16 10:16:43;;;;;;;;;;;20.40;70.20;;;;;;5097686;27;43020;-79
2023/05/16 10:19:09;;;;;;;;;;;20.20;70.00;;;;;;5094418;27;42982;-84
2023/05/16 10:21:36;;;;;;;;;;;20.20;70.10;;;;;;5086293;27;44646;-79
2023/05/16 10:24:03;;;;;;;;;;;20.30;69.30;;;;;;5096375;27;43160;-79
2023/05/16 10:26:29;;;;;;;;;;;20.10;69.90;;;;;;5098410;27;44373;-79
2023/05/16 10:28:55;;;;;;;;;;;19.90;69.60;;;;;;5091488;27;42997;-79
2023/05/16 10:31:21;;;;;;;;;;;20.20;69.50;;;;;;5097295;27;43113;-79
2023/05/16 10:33:46;;;;;;;;;;;20.30;70.00;;;;;;5097807;27;42904;-79
2023/05/16 10:36:12;;;;;;;;;;;20.30;69.70;;;;;;5094251;27;43031;-79
2023/05/16 10:38:38;;;;;;;;;;;20.30;69.40;;;;;;5099380;27;43086;-79
2023/05/16 10:41:05;;;;;;;;;;;20.20;70.00;;;;;;5096449;27;43607;-79
2023/05/16 10:43:32;;;;;;;;;;;20.30;69.70;;;;;;5087047;27;42954;-79
2023/05/16 10:46:16;;;;;;;;;;;20.20;70.00;;;;;;5092342;27;43537;-79
2023/05/16 10:48:41;;;;;;;;;;;20.20;67.50;;;;;;5089731;27;42960;-79
2023/05/16 10:51:22;;;;;;;;;;;20.20;69.50;;;;;;5097923;27;43072;-78
2023/05/16 10:53:51;;;;;;;;;;;20.30;69.70;;;;;;5088013;27;42981;-79
2023/05/16 10:56:21;;;;;;;;;;;20.20;67.20;;;;;;5098047;27;43399;-79
2023/05/16 10:58:47;;;;;;;;;;;20.10;69.90;;;;;;5093698;27;43025;-79
2023/05/16 11:01:22;;;;;;;;;;;20.20;69.40;;;;;;5102538;27;43011;-79
2023/05/16 11:04:09;;;;;;;;;;;20.30;67.50;;;;;;5098094;27;43198;-80
2023/05/16 11:06:42;;;;;;;;;;;20.30;70.00;;;;;;5091926;27;42932;-79
2023/05/16 11:09:12;;;;;;;;;;;20.30;69.90;;;;;;5094106;27;43163;-80
2023/05/16 11:11:37;;;;;;;;;;;20.40;69.60;;;;;;5093807;27;42827;-79
2023/05/16 11:14:03;;;;;;;;;;;21.00;70.00;;;;;;5066151;27;43059;-81
2023/05/16 11:16:29;;;;;;;;;;;20.30;70.00;;;;;;5090555;27;43051;-80
2023/05/16 11:19:03;;;;;;;;;;;20.60;70.20;;;;;;5097836;27;43159;-86
2023/05/16 11:21:48;;;;;;;;;;;20.10;70.00;;;;;;5094712;27;63295;-78
2023/05/16 11:24:26;;;;;;;;;;;20.60;67.60;;;;;;5096581;27;43205;-79
2023/05/16 11:26:52;;;;;;;;;;;20.30;67.20;;;;;;5096777;27;44208;-80
2023/05/16 11:29:18;;;;;;;;;;;20.50;69.50;;;;;;5096224;27;43453;-80
2023/05/16 11:31:44;;;;;;;;;;;20.40;69.30;;;;;;5096398;27;43000;-79
2023/05/16 11:34:10;;;;;;;;;;;20.20;68.90;;;;;;5087812;27;43054;-79
2023/05/16 11:36:37;;;;;;;;;;;20.30;67.70;;;;;;5093135;27;43044;-80
2023/05/16 11:39:06;;;;;;;;;;;20.40;66.60;;;;;;5085689;27;42978;-80
2023/05/16 11:41:31;;;;;;;;;;;20.20;64.30;;;;;;5102829;27;43473;-80
2023/05/16 11:43:57;;;;;;;;;;;20.30;66.00;;;;;;5088267;27;43127;-80
2023/05/16 11:46:22;;;;;;;;;;;20.30;65.60;;;;;;5093455;27;43859;-80
2023/05/16 11:48:48;;;;;;;;;;;20.30;65.30;;;;;;5091702;27;42971;-78
2023/05/16 11:51:17;;;;;;;;;;;20.30;65.70;;;;;;5085296;27;43154;-80
2023/05/16 11:53:43;;;;;;;;;;;20.30;65.50;;;;;;5087632;27;43158;-78
2023/05/16 11:56:10;;;;;;;;;;;20.30;65.10;;;;;;5091685;27;43433;-79
2023/05/16 11:58:37;;;;;;;;;;;20.30;64.80;;;;;;5090052;27;42999;-79
2023/05/16 12:01:03;;;;;;;;;;;20.20;64.90;;;;;;5092584;27;43089;-79
2023/05/16 12:03:32;;;;;;;;;;;20.30;64.50;;;;;;5093927;27;43258;-80
2023/05/16 12:05:57;;;;;;;;;;;20.10;64.30;;;;;;5096551;27;43064;-79
2023/05/16 12:08:24;;;;;;;;;;;20.20;64.30;;;;;;5096562;27;43228;-79
2023/05/16 12:10:50;;;;;;;;;;;20.30;64.20;;;;;;5092258;27;43134;-79
2023/05/16 12:13:17;;;;;;;;;;;20.20;64.40;;;;;;5095310;27;43151;-78
2023/05/16 12:15:42;;;;;;;;;;;20.20;64.30;;;;;;5104390;27;43116;-79
2023/05/16 12:18:08;;;;;;;;;;;20.30;64.00;;;;;;5103771;27;42953;-78
2023/05/16 12:20:34;;;;;;;;;;;20.10;63.70;;;;;;5100277;27;43755;-79
2023/05/16 12:22:59;;;;;;;;;;;20.00;62.90;;;;;;5100295;27;43039;-77
2023/05/16 12:25:28;;;;;;;;;;;20.20;63.60;;;;;;5091373;27;42975;-79
2023/05/16 12:27:55;;;;;;;;;;;20.30;61.40;;;;;;5097922;27;43135;-80
2023/05/16 12:30:21;;;;;;;;;;;20.30;63.80;;;;;;5094774;27;43959;-81
2023/05/16 12:32:51;;;;;;;;;;;20.40;63.70;;;;;;5094283;27;43070;-80
2023/05/16 12:35:17;;;;;;;;;;;20.10;63.50;;;;;;5078513;27;44666;-79
2023/05/16 12:37:42;;;;;;;;;;;20.10;63.70;;;;;;5097774;27;43014;-80
2023/05/16 12:40:09;;;;;;;;;;;20.20;64.10;;;;;;5097040;27;44153;-80
2023/05/16 12:42:35;;;;;;;;;;;20.30;63.90;;;;;;5093059;27;43124;-80
2023/05/16 12:45:01;;;;;;;;;;;20.30;63.70;;;;;;5103329;27;43910;-80
2023/05/16 12:47:37;;;;;;;;;;;20.10;63.90;;;;;;5098471;27;43276;-81
2023/05/16 12:50:07;;;;;;;;;;;20.30;64.10;;;;;;5099690;27;44958;-79
2023/05/16 12:52:33;;;;;;;;;;;20.30;64.30;;;;;;5095187;27;42980;-80
2023/05/16 12:54:58;;;;;;;;;;;20.40;64.20;;;;;;5096557;27;42988;-80
2023/05/16 12:57:24;;;;;;;;;;;20.30;64.20;;;;;;5087733;27;42952;-79
2023/05/16 12:59:49;;;;;;;;;;;20.30;64.40;;;;;;5096881;27;43783;-80
2023/05/16 13:02:15;;;;;;;;;;;20.30;64.50;;;;;;5094110;27;43231;-80
2023/05/16 13:04:41;;;;;;;;;;;20.20;64.30;;;;;;5097873;27;43013;-79
2023/05/16 13:07:06;;;;;;;;;;;20.30;64.30;;;;;;5099786;27;43219;-80
2023/05/16 13:09:32;;;;;;;;;;;20.40;64.20;;;;;;5101632;27;43815;-79
2023/05/16 13:11:58;;;;;;;;;;;20.30;64.20;;;;;;5098853;27;44027;-79
2023/05/16 13:14:23;;;;;;;;;;;20.10;64.30;;;;;;5103993;27;43269;-78
2023/05/16 13:16:49;;;;;;;;;;;20.20;64.40;;;;;;5071212;27;43242;-79
2023/05/16 13:19:14;;;;;;;;;;;20.20;64.50;;;;;;5087313;27;43323;-80
2023/05/16 13:21:40;;;;;;;;;;;20.40;65.10;;;;;;5097312;27;43148;-80
2023/05/16 13:24:06;;;;;;;;;;;20.30;65.40;;;;;;5093779;27;43036;-79
2023/05/16 13:26:31;;;;;;;;;;;20.20;65.50;;;;;;5087436;27;42958;-84
2023/05/16 13:28:57;;;;;;;;;;;20.30;65.80;;;;;;5092407;27;43216;-81
2023/05/16 13:31:22;;;;;;;;;;;20.50;65.50;;;;;;5079901;27;43138;-78
2023/05/16 13:33:48;;;;;;;;;;;20.40;65.90;;;;;;5098541;27;43325;-75
2023/05/16 13:36:13;;;;;;;;;;;20.40;65.70;;;;;;5100089;27;42930;-79
2023/05/16 13:38:40;;;;;;;;;;;20.40;65.70;;;;;;5091025;27;43636;-79
2023/05/16 13:41:05;;;;;;;;;;;20.40;65.60;;;;;;5089932;27;42884;-78
2023/05/16 13:43:31;;;;;;;;;;;20.40;65.70;;;;;;5101543;27;43116;-78
2023/05/16 13:45:56;;;;;;;;;;;20.20;65.10;;;;;;5076050;27;43719;-77
2023/05/16 13:48:22;;;;;;;;;;;20.70;65.60;;;;;;5099161;27;43610;-78
2023/05/16 13:50:47;;;;;;;;;;;20.30;65.90;;;;;;5101596;27;43087;-78
2023/05/16 13:53:13;;;;;;;;;;;20.30;66.00;;;;;;5096137;27;42946;-78
2023/05/16 13:55:38;;;;;;;;;;;20.40;65.80;;;;;;5097211;27;43105;-79
2023/05/16 13:58:04;;;;;;;;;;;20.30;65.30;;;;;;5099427;27;43511;-78
2023/05/16 14:00:30;;;;;;;;;;;20.30;65.80;;;;;;5102137;27;43177;-78
2023/05/16 14:02:55;;;;;;;;;;;20.20;65.70;;;;;;5089583;27;42942;-79
2023/05/16 14:05:21;;;;;;;;;;;20.30;65.30;;;;;;5093661;27;43001;-77
2023/05/16 14:07:46;;;;;;;;;;;20.20;65.90;;;;;;5093242;27;43301;-78
2023/05/16 14:10:12;;;;;;;;;;;20.40;65.30;;;;;;5093817;27;43208;-79
2023/05/16 14:12:37;;;;;;;;;;;20.30;65.40;;;;;;5093396;27;44303;-78